sensor_id;sensor_type;location;lat;lon;timestamp;temperature;humidity
65207;SHT31;58477;48.072;11.970;2022-09-20T00:03:42;8.23;88.04
65207;SHT31;58477;48.072;11.970;2022-09-20T00:06:10;8.23;87.89
65207;SHT31;58477;48.072;11.970;2022-09-20T00:08:35;8.13;88.10
65207;SHT31;58477;48.072;11.970;2022-09-20T00:11:09;8.11;88.03
65207;SHT31;58477;48.072;11.970;2022-09-20T00:13:37;7.98;88.04
65207;SHT31;58477;48.072;11.970;2022-09-20T00:16:07;7.90;88.27
65207;SHT31;58477;48.072;11.970;2022-09-20T00:18:33;7.84;87.72
65207;SHT31;58477;48.072;11.970;2022-09-20T00:20:58;7.94;87.78
65207;SHT31;58477;48.072;11.970;2022-09-20T00:23:24;7.86;88.30
65207;SHT31;58477;48.072;11.970;2022-09-20T00:25:54;7.65;88.61
65207;SHT31;58477;48.072;11.970;2022-09-20T00:28:20;7.52;89.43
65207;SHT31;58477;48.072;11.970;2022-09-20T00:30:45;7.38;89.79
65207;SHT31;58477;48.072;11.970;2022-09-20T00:33:10;7.38;90.17
65207;SHT31;58477;48.072;11.970;2022-09-20T00:35:36;7.29;90.45
65207;SHT31;58477;48.072;11.970;2022-09-20T00:38:01;7.29;90.67
65207;SHT31;58477;48.072;11.970;2022-09-20T00:40:26;7.42;89.80
65207;SHT31;58477;48.072;11.970;2022-09-20T00:42:52;7.35;89.79
65207;SHT31;58477;48.072;11.970;2022-09-20T00:45:22;7.32;90.27
65207;SHT31;58477;48.072;11.970;2022-09-20T00:52:59;7.30;90.55
65207;SHT31;58477;48.072;11.970;2022-09-20T00:55:27;7.32;90.40
65207;SHT31;58477;48.072;11.970;2022-09-20T00:57:53;7.36;90.42
65207;SHT31;58477;48.072;11.970;2022-09-20T01:00:19;7.39;90.04
65207;SHT31;58477;48.072;11.970;2022-09-20T01:02:50;7.53;89.78
65207;SHT31;58477;48.072;11.970;2022-09-20T01:05:18;7.48;90.03
65207;SHT31;58477;48.072;11.970;2022-09-20T01:07:46;7.46;90.06
65207;SHT31;58477;48.072;11.970;2022-09-20T01:10:12;7.48;90.31
65207;SHT31;58477;48.072;11.970;2022-09-20T01:12:38;7.55;90.26
65207;SHT31;58477;48.072;11.970;2022-09-20T01:15:06;7.63;90.06
65207;SHT31;58477;48.072;11.970;2022-09-20T01:17:35;7.66;90.13
65207;SHT31;58477;48.072;11.970;2022-09-20T01:25:47;7.90;89.35
65207;SHT31;58477;48.072;11.970;2022-09-20T01:28:14;7.91;89.38
65207;SHT31;58477;48.072;11.970;2022-09-20T01:30:45;8.01;88.60
65207;SHT31;58477;48.072;11.970;2022-09-20T01:35:52;8.05;88.97
65207;SHT31;58477;48.072;11.970;2022-09-20T01:38:29;8.07;88.61
65207;SHT31;58477;48.072;11.970;2022-09-20T01:41:27;8.07;88.18
65207;SHT31;58477;48.072;11.970;2022-09-20T01:46:35;8.17;87.95
65207;SHT31;58477;48.072;11.970;2022-09-20T01:52:16;8.27;87.71
65207;SHT31;58477;48.072;11.970;2022-09-20T02:14:51;8.27;87.91
65207;SHT31;58477;48.072;11.970;2022-09-20T02:20:06;8.15;88.31
65207;SHT31;58477;48.072;11.970;2022-09-20T02:22:59;8.11;87.99
65207;SHT31;58477;48.072;11.970;2022-09-20T02:25:39;8.11;88.37
65207;SHT31;58477;48.072;11.970;2022-09-20T02:31:03;8.13;87.91
65207;SHT31;58477;48.072;11.970;2022-09-20T02:38:43;8.17;88.20
65207;SHT31;58477;48.072;11.970;2022-09-20T02:52:02;8.14;87.38
65207;SHT31;58477;48.072;11.970;2022-09-20T02:54:47;8.20;87.60
65207;SHT31;58477;48.072;11.970;2022-09-20T03:00:06;8.17;87.28
65207;SHT31;58477;48.072;11.970;2022-09-20T03:02:46;8.20;87.37
65207;SHT31;58477;48.072;11.970;2022-09-20T03:05:43;8.21;86.56
65207;SHT31;58477;48.072;11.970;2022-09-20T03:10:51;8.15;87.51
65207;SHT31;58477;48.072;11.970;2022-09-20T03:16:33;8.13;88.25
65207;SHT31;58477;48.072;11.970;2022-09-20T03:41:20;8.21;88.25
65207;SHT31;58477;48.072;11.970;2022-09-20T03:46:24;8.21;87.94
65207;SHT31;58477;48.072;11.970;2022-09-20T03:51:27;8.23;88.15
65207;SHT31;58477;48.072;11.970;2022-09-20T04:02:20;8.28;87.75
65207;SHT31;58477;48.072;11.970;2022-09-20T04:04:57;8.24;88.06
65207;SHT31;58477;48.072;11.970;2022-09-20T04:13:37;8.20;87.95
65207;SHT31;58477;48.072;11.970;2022-09-20T04:16:19;8.23;87.85
65207;SHT31;58477;48.072;11.970;2022-09-20T04:18:54;8.21;87.78
65207;SHT31;58477;48.072;11.970;2022-09-20T04:21:30;8.13;88.15
65207;SHT31;58477;48.072;11.970;2022-09-20T04:26:43;8.15;88.05
65207;SHT31;58477;48.072;11.970;2022-09-20T04:29:28;8.20;88.03
65207;SHT31;58477;48.072;11.970;2022-09-20T04:34:46;8.18;88.34
65207;SHT31;58477;48.072;11.970;2022-09-20T04:37:36;8.23;88.04
65207;SHT31;58477;48.072;11.970;2022-09-20T04:40:24;8.24;88.60
65207;SHT31;58477;48.072;11.970;2022-09-20T04:43:09;8.20;87.91
65207;SHT31;58477;48.072;11.970;2022-09-20T04:48:29;8.18;88.20
65207;SHT31;58477;48.072;11.970;2022-09-20T05:00:06;8.03;88.63
65207;SHT31;58477;48.072;11.970;2022-09-20T05:06:03;8.01;88.62
65207;SHT31;58477;48.072;11.970;2022-09-20T05:08:54;7.98;88.60
65207;SHT31;58477;48.072;11.970;2022-09-20T05:14:49;8.03;88.60
65207;SHT31;58477;48.072;11.970;2022-09-20T05:17:35;8.08;88.87
65207;SHT31;58477;48.072;11.970;2022-09-20T05:20:40;8.08;88.57
65207;SHT31;58477;48.072;11.970;2022-09-20T05:31:53;7.91;89.06
65207;SHT31;58477;48.072;11.970;2022-09-20T05:37:05;7.93;89.20
65207;SHT31;58477;48.072;11.970;2022-09-20T05:39:43;8.01;89.26
65207;SHT31;58477;48.072;11.970;2022-09-20T05:45:25;8.11;88.72
65207;SHT31;58477;48.072;11.970;2022-09-20T05:48:04;8.18;88.61
65207;SHT31;58477;48.072;11.970;2022-09-20T05:50:51;8.21;88.18
65207;SHT31;58477;48.072;11.970;2022-09-20T06:01:33;8.30;87.42
65207;SHT31;58477;48.072;11.970;2022-09-20T06:04:19;8.41;87.72
65207;SHT31;58477;48.072;11.970;2022-09-20T06:07:09;8.42;87.23
65207;SHT31;58477;48.072;11.970;2022-09-20T06:10:11;8.58;87.46
65207;SHT31;58477;48.072;11.970;2022-09-20T06:15:56;8.68;86.47
65207;SHT31;58477;48.072;11.970;2022-09-20T06:18:28;8.59;86.87
65207;SHT31;58477;48.072;11.970;2022-09-20T06:21:07;8.69;86.24
65207;SHT31;58477;48.072;11.970;2022-09-20T06:23:34;8.73;85.98
65207;SHT31;58477;48.072;11.970;2022-09-20T06:26:11;8.86;85.63
65207;SHT31;58477;48.072;11.970;2022-09-20T06:28:41;8.88;85.44
65207;SHT31;58477;48.072;11.970;2022-09-20T06:31:09;8.83;85.82
65207;SHT31;58477;48.072;11.970;2022-09-20T06:34:02;8.83;85.56
65207;SHT31;58477;48.072;11.970;2022-09-20T06:36:33;8.89;85.38
65207;SHT31;58477;48.072;11.970;2022-09-20T06:39:55;8.89;85.38
65207;SHT31;58477;48.072;11.970;2022-09-20T06:42:42;9.02;85.02
65207;SHT31;58477;48.072;11.970;2022-09-20T06:45:09;9.05;84.59
65207;SHT31;58477;48.072;11.970;2022-09-20T06:47:34;9.03;84.33
65207;SHT31;58477;48.072;11.970;2022-09-20T06:50:00;8.95;84.51
65207;SHT31;58477;48.072;11.970;2022-09-20T06:52:26;8.89;84.51
65207;SHT31;58477;48.072;11.970;2022-09-20T06:54:53;8.93;84.63
65207;SHT31;58477;48.072;11.970;2022-09-20T06:57:23;8.89;84.72
65207;SHT31;58477;48.072;11.970;2022-09-20T06:59:51;8.85;84.57
65207;SHT31;58477;48.072;11.970;2022-09-20T07:02:17;8.82;85.35
65207;SHT31;58477;48.072;11.970;2022-09-20T07:04:42;8.73;85.62
65207;SHT31;58477;48.072;11.970;2022-09-20T07:07:15;8.47;87.48
65207;SHT31;58477;48.072;11.970;2022-09-20T07:09:41;8.35;89.54
65207;SHT31;58477;48.072;11.970;2022-09-20T07:12:07;8.33;89.63
65207;SHT31;58477;48.072;11.970;2022-09-20T07:14:34;8.35;89.95
65207;SHT31;58477;48.072;11.970;2022-09-20T07:17:00;8.38;90.04
65207;SHT31;58477;48.072;11.970;2022-09-20T07:19:25;8.40;90.69
65207;SHT31;58477;48.072;11.970;2022-09-20T07:21:51;8.35;90.62
65207;SHT31;58477;48.072;11.970;2022-09-20T07:24:16;8.37;90.69
65207;SHT31;58477;48.072;11.970;2022-09-20T07:26:56;8.41;91.23
65207;SHT31;58477;48.072;11.970;2022-09-20T07:29:22;8.49;91.73
65207;SHT31;58477;48.072;11.970;2022-09-20T07:31:48;8.58;90.86
65207;SHT31;58477;48.072;11.970;2022-09-20T07:34:15;8.69;91.14
65207;SHT31;58477;48.072;11.970;2022-09-20T07:36:42;8.83;90.51
65207;SHT31;58477;48.072;11.970;2022-09-20T07:39:08;9.00;89.90
65207;SHT31;58477;48.072;11.970;2022-09-20T07:41:33;9.29;90.62
65207;SHT31;58477;48.072;11.970;2022-09-20T07:43:59;8.92;89.38
65207;SHT31;58477;48.072;11.970;2022-09-20T07:46:46;8.98;90.32
65207;SHT31;58477;48.072;11.970;2022-09-20T07:49:12;8.99;90.57
65207;SHT31;58477;48.072;11.970;2022-09-20T07:51:38;8.93;90.77
65207;SHT31;58477;48.072;11.970;2022-09-20T07:54:03;9.03;90.74
65207;SHT31;58477;48.072;11.970;2022-09-20T07:56:29;9.29;90.38
65207;SHT31;58477;48.072;11.970;2022-09-20T07:58:54;9.16;89.49
65207;SHT31;58477;48.072;11.970;2022-09-20T08:01:20;9.32;89.47
65207;SHT31;58477;48.072;11.970;2022-09-20T08:03:47;9.26;90.30
65207;SHT31;58477;48.072;11.970;2022-09-20T08:06:12;9.63;89.31
65207;SHT31;58477;48.072;11.970;2022-09-20T08:08:43;10.01;86.92
65207;SHT31;58477;48.072;11.970;2022-09-20T08:11:14;10.25;87.15
65207;SHT31;58477;48.072;11.970;2022-09-20T08:13:50;10.92;86.85
65207;SHT31;58477;48.072;11.970;2022-09-20T08:16:17;10.29;85.81
65207;SHT31;58477;48.072;11.970;2022-09-20T08:18:56;10.53;88.16
65207;SHT31;58477;48.072;11.970;2022-09-20T08:21:29;10.24;87.60
65207;SHT31;58477;48.072;11.970;2022-09-20T08:23:56;10.09;87.82
65207;SHT31;58477;48.072;11.970;2022-09-20T08:26:22;9.98;88.18
65207;SHT31;58477;48.072;11.970;2022-09-20T08:28:56;9.74;89.03
65207;SHT31;58477;48.072;11.970;2022-09-20T08:31:24;9.71;89.19
65207;SHT31;58477;48.072;11.970;2022-09-20T08:33:51;9.42;90.51
65207;SHT31;58477;48.072;11.970;2022-09-20T08:36:22;9.34;90.88
65207;SHT31;58477;48.072;11.970;2022-09-20T08:38:49;9.47;90.18
65207;SHT31;58477;48.072;11.970;2022-09-20T08:41:19;9.58;90.37
65207;SHT31;58477;48.072;11.970;2022-09-20T08:44:10;9.81;90.78
65207;SHT31;58477;48.072;11.970;2022-09-20T08:46:44;10.12;88.89
65207;SHT31;58477;48.072;11.970;2022-09-20T08:49:18;10.17;88.98
65207;SHT31;58477;48.072;11.970;2022-09-20T08:51:49;10.25;88.79
65207;SHT31;58477;48.072;11.970;2022-09-20T08:54:15;10.29;88.24
65207;SHT31;58477;48.072;11.970;2022-09-20T08:56:41;10.55;88.51
65207;SHT31;58477;48.072;11.970;2022-09-20T08:59:18;10.29;87.59
65207;SHT31;58477;48.072;11.970;2022-09-20T09:01:49;10.42;88.54
65207;SHT31;58477;48.072;11.970;2022-09-20T09:04:20;10.48;88.59
65207;SHT31;58477;48.072;11.970;2022-09-20T09:06:49;10.39;87.50
65207;SHT31;58477;48.072;11.970;2022-09-20T09:09:21;10.42;87.89
65207;SHT31;58477;48.072;11.970;2022-09-20T09:11:48;10.27;88.95
65207;SHT31;58477;48.072;11.970;2022-09-20T09:14:26;10.37;88.94
65207;SHT31;58477;48.072;11.970;2022-09-20T09:17:19;10.97;86.48
65207;SHT31;58477;48.072;11.970;2022-09-20T09:19:59;11.19;86.08
65207;SHT31;58477;48.072;11.970;2022-09-20T09:25:08;11.38;82.69
65207;SHT31;58477;48.072;11.970;2022-09-20T09:27:34;11.84;83.25
65207;SHT31;58477;48.072;11.970;2022-09-20T09:30:00;11.81;82.21
65207;SHT31;58477;48.072;11.970;2022-09-20T09:32:30;11.68;84.06
65207;SHT31;58477;48.072;11.970;2022-09-20T09:35:28;11.71;82.78
65207;SHT31;58477;48.072;11.970;2022-09-20T09:37:59;11.50;82.92
65207;SHT31;58477;48.072;11.970;2022-09-20T09:40:26;12.99;80.92
65207;SHT31;58477;48.072;11.970;2022-09-20T09:42:57;15.35;75.37
65207;SHT31;58477;48.072;11.970;2022-09-20T09:45:37;16.19;72.48
65207;SHT31;58477;48.072;11.970;2022-09-20T09:48:19;16.02;71.63
65207;SHT31;58477;48.072;11.970;2022-09-20T09:50:45;15.07;71.10
65207;SHT31;58477;48.072;11.970;2022-09-20T09:53:22;13.89;75.49
65207;SHT31;58477;48.072;11.970;2022-09-20T10:04:19;13.60;75.86
65207;SHT31;58477;48.072;11.970;2022-09-20T10:07:08;14.68;72.21
65207;SHT31;58477;48.072;11.970;2022-09-20T10:10:21;15.41;69.65
65207;SHT31;58477;48.072;11.970;2022-09-20T10:12:44;16.62;70.52
65207;SHT31;58477;48.072;11.970;2022-09-20T10:15:20;16.97;67.51
65207;SHT31;58477;48.072;11.970;2022-09-20T10:40:36;13.07;72.57
65207;SHT31;58477;48.072;11.970;2022-09-20T10:44:15;13.27;73.84
65207;SHT31;58477;48.072;11.970;2022-09-20T10:48:47;12.38;74.35
65207;SHT31;58477;48.072;11.970;2022-09-20T10:57:11;12.18;76.19
65207;SHT31;58477;48.072;11.970;2022-09-20T11:07:18;13.27;71.67
65207;SHT31;58477;48.072;11.970;2022-09-20T11:09:56;13.78;69.86
65207;SHT31;58477;48.072;11.970;2022-09-20T11:12:37;14.16;69.76
65207;SHT31;58477;48.072;11.970;2022-09-20T11:18:13;13.94;69.29
65207;SHT31;58477;48.072;11.970;2022-09-20T11:20:56;13.85;67.75
65207;SHT31;58477;48.072;11.970;2022-09-20T11:23:31;13.72;67.68
65207;SHT31;58477;48.072;11.970;2022-09-20T11:26:06;14.29;66.40
65207;SHT31;58477;48.072;11.970;2022-09-20T11:28:50;14.52;67.35
65207;SHT31;58477;48.072;11.970;2022-09-20T11:31:25;15.43;65.75
65207;SHT31;58477;48.072;11.970;2022-09-20T11:34:19;14.50;66.07
65207;SHT31;58477;48.072;11.970;2022-09-20T11:36:59;13.51;67.52
65207;SHT31;58477;48.072;11.970;2022-09-20T11:39:34;13.13;69.09
65207;SHT31;58477;48.072;11.970;2022-09-20T11:42:02;12.97;69.61
65207;SHT31;58477;48.072;11.970;2022-09-20T11:44:30;12.46;69.32
65207;SHT31;58477;48.072;11.970;2022-09-20T11:47:32;12.87;70.50
65207;SHT31;58477;48.072;11.970;2022-09-20T11:53:19;15.34;65.60
65207;SHT31;58477;48.072;11.970;2022-09-20T11:55:55;15.78;63.99
65207;SHT31;58477;48.072;11.970;2022-09-20T11:58:23;15.74;64.77
65207;SHT31;58477;48.072;11.970;2022-09-20T12:00:52;14.80;65.72
65207;SHT31;58477;48.072;11.970;2022-09-20T12:03:31;14.22;64.50
65207;SHT31;58477;48.072;11.970;2022-09-20T12:06:02;14.18;66.02
65207;SHT31;58477;48.072;11.970;2022-09-20T12:08:37;14.33;65.99
65207;SHT31;58477;48.072;11.970;2022-09-20T12:11:10;14.63;66.70
65207;SHT31;58477;48.072;11.970;2022-09-20T12:13:38;14.58;66.49
65207;SHT31;58477;48.072;11.970;2022-09-20T12:16:14;14.86;64.69
65207;SHT31;58477;48.072;11.970;2022-09-20T12:19:00;14.60;65.31
65207;SHT31;58477;48.072;11.970;2022-09-20T12:21:26;14.94;64.53
65207;SHT31;58477;48.072;11.970;2022-09-20T12:28:46;15.00;64.84
65207;SHT31;58477;48.072;11.970;2022-09-20T12:36:21;14.75;63.77
65207;SHT31;58477;48.072;11.970;2022-09-20T12:38:52;14.97;65.13
65207;SHT31;58477;48.072;11.970;2022-09-20T12:41:19;15.07;63.63
65207;SHT31;58477;48.072;11.970;2022-09-20T12:44:01;14.94;64.42
65207;SHT31;58477;48.072;11.970;2022-09-20T12:46:37;14.90;64.23
65207;SHT31;58477;48.072;11.970;2022-09-20T12:52:26;15.08;62.03
65207;SHT31;58477;48.072;11.970;2022-09-20T12:55:26;15.03;62.05
65207;SHT31;58477;48.072;11.970;2022-09-20T12:58:21;14.43;60.94
65207;SHT31;58477;48.072;11.970;2022-09-20T13:11:29;14.28;62.47
65207;SHT31;58477;48.072;11.970;2022-09-20T13:19:24;14.73;60.42
65207;SHT31;58477;48.072;11.970;2022-09-20T13:24:26;14.93;63.31
65207;SHT31;58477;48.072;11.970;2022-09-20T13:26:59;14.84;61.32
65207;SHT31;58477;48.072;11.970;2022-09-20T13:29:39;14.58;61.85
65207;SHT31;58477;48.072;11.970;2022-09-20T13:37:36;14.14;59.88
65207;SHT31;58477;48.072;11.970;2022-09-20T13:40:03;14.45;60.25
65207;SHT31;58477;48.072;11.970;2022-09-20T13:42:31;14.45;61.45
65207;SHT31;58477;48.072;11.970;2022-09-20T13:45:01;13.54;61.65
65207;SHT31;58477;48.072;11.970;2022-09-20T13:47:29;13.88;62.36
65207;SHT31;58477;48.072;11.970;2022-09-20T13:50:15;14.08;61.69
65207;SHT31;58477;48.072;11.970;2022-09-20T13:52:47;13.70;62.87
65207;SHT31;58477;48.072;11.970;2022-09-20T13:55:31;13.58;62.99
65207;SHT31;58477;48.072;11.970;2022-09-20T13:58:07;13.82;61.51
65207;SHT31;58477;48.072;11.970;2022-09-20T14:00:35;13.61;62.20
65207;SHT31;58477;48.072;11.970;2022-09-20T14:03:02;13.79;63.98
65207;SHT31;58477;48.072;11.970;2022-09-20T14:05:29;13.77;63.60
65207;SHT31;58477;48.072;11.970;2022-09-20T14:07:55;13.61;61.68
65207;SHT31;58477;48.072;11.970;2022-09-20T14:10:33;14.15;62.66
65207;SHT31;58477;48.072;11.970;2022-09-20T14:13:00;14.01;62.99
65207;SHT31;58477;48.072;11.970;2022-09-20T14:15:35;13.95;62.28
65207;SHT31;58477;48.072;11.970;2022-09-20T14:18:01;14.25;62.28
65207;SHT31;58477;48.072;11.970;2022-09-20T14:20:29;14.15;62.07
65207;SHT31;58477;48.072;11.970;2022-09-20T14:22:54;14.24;63.36
65207;SHT31;58477;48.072;11.970;2022-09-20T14:25:22;14.14;60.57
65207;SHT31;58477;48.072;11.970;2022-09-20T14:28:04;14.28;62.36
65207;SHT31;58477;48.072;11.970;2022-09-20T14:30:33;14.42;61.81
65207;SHT31;58477;48.072;11.970;2022-09-20T14:33:00;14.58;61.92
65207;SHT31;58477;48.072;11.970;2022-09-20T14:35:27;14.14;62.57
65207;SHT31;58477;48.072;11.970;2022-09-20T14:37:59;14.19;62.86
65207;SHT31;58477;48.072;11.970;2022-09-20T14:40:28;14.06;62.83
65207;SHT31;58477;48.072;11.970;2022-09-20T14:43:04;13.95;64.12
65207;SHT31;58477;48.072;11.970;2022-09-20T14:45:38;13.86;64.14
65207;SHT31;58477;48.072;11.970;2022-09-20T14:48:05;14.09;64.42
65207;SHT31;58477;48.072;11.970;2022-09-20T14:51:10;13.81;64.61
65207;SHT31;58477;48.072;11.970;2022-09-20T14:53:37;13.78;64.12
65207;SHT31;58477;48.072;11.970;2022-09-20T14:58:32;13.82;64.73
65207;SHT31;58477;48.072;11.970;2022-09-20T15:01:04;14.08;64.55
65207;SHT31;58477;48.072;11.970;2022-09-20T15:03:32;13.85;64.44
65207;SHT31;58477;48.072;11.970;2022-09-20T15:05:58;13.84;65.90
65207;SHT31;58477;48.072;11.970;2022-09-20T15:08:24;13.86;65.37
65207;SHT31;58477;48.072;11.970;2022-09-20T15:10:50;13.67;64.75
65207;SHT31;58477;48.072;11.970;2022-09-20T15:13:16;13.50;65.67
65207;SHT31;58477;48.072;11.970;2022-09-20T15:15:42;13.19;67.53
65207;SHT31;58477;48.072;11.970;2022-09-20T15:18:32;13.36;67.10
65207;SHT31;58477;48.072;11.970;2022-09-20T15:20:59;13.16;66.20
65207;SHT31;58477;48.072;11.970;2022-09-20T15:23:25;13.09;66.97
65207;SHT31;58477;48.072;11.970;2022-09-20T15:25:52;12.99;67.97
65207;SHT31;58477;48.072;11.970;2022-09-20T15:28:18;12.86;68.56
65207;SHT31;58477;48.072;11.970;2022-09-20T15:30:44;12.72;68.34
65207;SHT31;58477;48.072;11.970;2022-09-20T15:33:10;12.41;68.62
65207;SHT31;58477;48.072;11.970;2022-09-20T15:35:38;12.35;69.16
65207;SHT31;58477;48.072;11.970;2022-09-20T15:38:03;12.45;69.05
65207;SHT31;58477;48.072;11.970;2022-09-20T15:40:30;12.46;69.69
65207;SHT31;58477;48.072;11.970;2022-09-20T15:42:56;12.43;70.12
65207;SHT31;58477;48.072;11.970;2022-09-20T15:45:24;12.35;70.87
65207;SHT31;58477;48.072;11.970;2022-09-20T15:47:51;12.52;69.52
65207;SHT31;58477;48.072;11.970;2022-09-20T15:50:20;12.55;70.16
65207;SHT31;58477;48.072;11.970;2022-09-20T15:52:49;12.41;69.03
65207;SHT31;58477;48.072;11.970;2022-09-20T15:55:18;12.20;70.37
65207;SHT31;58477;48.072;11.970;2022-09-20T15:57:44;12.17;69.88
65207;SHT31;58477;48.072;11.970;2022-09-20T16:00:10;12.21;69.69
65207;SHT31;58477;48.072;11.970;2022-09-20T16:02:35;12.05;70.22
65207;SHT31;58477;48.072;11.970;2022-09-20T16:05:01;12.24;70.33
65207;SHT31;58477;48.072;11.970;2022-09-20T16:07:27;12.24;70.29
65207;SHT31;58477;48.072;11.970;2022-09-20T16:09:53;12.17;69.82
65207;SHT31;58477;48.072;11.970;2022-09-20T16:12:20;11.88;70.06
65207;SHT31;58477;48.072;11.970;2022-09-20T16:14:46;11.95;71.25
65207;SHT31;58477;48.072;11.970;2022-09-20T16:17:11;11.95;70.38
65207;SHT31;58477;48.072;11.970;2022-09-20T16:19:37;11.99;70.87
65207;SHT31;58477;48.072;11.970;2022-09-20T16:22:03;11.97;69.95
65207;SHT31;58477;48.072;11.970;2022-09-20T16:24:31;11.68;71.42
65207;SHT31;58477;48.072;11.970;2022-09-20T16:26:58;11.63;70.11
65207;SHT31;58477;48.072;11.970;2022-09-20T16:29:25;11.63;70.07
65207;SHT31;58477;48.072;11.970;2022-09-20T16:31:52;11.53;70.04
65207;SHT31;58477;48.072;11.970;2022-09-20T16:34:34;11.53;70.36
65207;SHT31;58477;48.072;11.970;2022-09-20T16:37:19;11.46;70.91
65207;SHT31;58477;48.072;11.970;2022-09-20T16:39:46;11.27;71.20
65207;SHT31;58477;48.072;11.970;2022-09-20T16:42:12;11.06;71.88
65207;SHT31;58477;48.072;11.970;2022-09-20T16:44:41;11.07;72.36
65207;SHT31;58477;48.072;11.970;2022-09-20T16:47:10;11.02;73.17
65207;SHT31;58477;48.072;11.970;2022-09-20T16:49:36;10.88;73.39
65207;SHT31;58477;48.072;11.970;2022-09-20T16:52:08;10.79;74.08
65207;SHT31;58477;48.072;11.970;2022-09-20T16:54:35;10.65;73.62
65207;SHT31;58477;48.072;11.970;2022-09-20T16:57:01;10.58;74.59
65207;SHT31;58477;48.072;11.970;2022-09-20T16:59:26;10.49;74.62
65207;SHT31;58477;48.072;11.970;2022-09-20T17:01:52;10.35;74.77
65207;SHT31;58477;48.072;11.970;2022-09-20T17:04:18;10.34;75.83
65207;SHT31;58477;48.072;11.970;2022-09-20T17:06:46;10.22;75.05
65207;SHT31;58477;48.072;11.970;2022-09-20T17:09:13;10.21;76.73
65207;SHT31;58477;48.072;11.970;2022-09-20T17:11:43;10.12;75.47
65207;SHT31;58477;48.072;11.970;2022-09-20T17:14:14;10.11;76.14
65207;SHT31;58477;48.072;11.970;2022-09-20T17:16:42;9.98;77.05
65207;SHT31;58477;48.072;11.970;2022-09-20T17:19:09;9.88;78.12
65207;SHT31;58477;48.072;11.970;2022-09-20T17:21:38;9.80;78.43
65207;SHT31;58477;48.072;11.970;2022-09-20T17:24:06;9.71;78.62
65207;SHT31;58477;48.072;11.970;2022-09-20T17:26:34;9.64;78.29
65207;SHT31;58477;48.072;11.970;2022-09-20T17:29:02;9.54;79.29
65207;SHT31;58477;48.072;11.970;2022-09-20T17:31:30;9.42;80.00
65207;SHT31;58477;48.072;11.970;2022-09-20T17:34:01;9.40;79.58
65207;SHT31;58477;48.072;11.970;2022-09-20T17:36:33;9.46;80.69
65207;SHT31;58477;48.072;11.970;2022-09-20T17:39:00;9.46;79.92
65207;SHT31;58477;48.072;11.970;2022-09-20T17:41:27;9.51;80.51
65207;SHT31;58477;48.072;11.970;2022-09-20T17:43:57;9.48;79.87
65207;SHT31;58477;48.072;11.970;2022-09-20T17:46:28;9.48;80.75
65207;SHT31;58477;48.072;11.970;2022-09-20T17:48:58;9.53;81.16
65207;SHT31;58477;48.072;11.970;2022-09-20T17:51:36;9.47;80.33
65207;SHT31;58477;48.072;11.970;2022-09-20T17:54:02;9.48;79.56
65207;SHT31;58477;48.072;11.970;2022-09-20T17:56:28;9.47;79.81
65207;SHT31;58477;48.072;11.970;2022-09-20T17:59:00;9.50;80.91
65207;SHT31;58477;48.072;11.970;2022-09-20T18:01:27;9.53;79.82
65207;SHT31;58477;48.072;11.970;2022-09-20T18:03:55;9.57;79.84
65207;SHT31;58477;48.072;11.970;2022-09-20T18:06:31;9.53;80.79
65207;SHT31;58477;48.072;11.970;2022-09-20T18:08:59;9.51;80.54
65207;SHT31;58477;48.072;11.970;2022-09-20T18:11:36;9.60;80.59
65207;SHT31;58477;48.072;11.970;2022-09-20T18:14:03;9.54;81.43
65207;SHT31;58477;48.072;11.970;2022-09-20T18:16:30;9.51;82.50
65207;SHT31;58477;48.072;11.970;2022-09-20T18:18:56;9.34;82.34
65207;SHT31;58477;48.072;11.970;2022-09-20T18:21:25;9.36;82.28
65207;SHT31;58477;48.072;11.970;2022-09-20T18:23:51;9.37;82.17
65207;SHT31;58477;48.072;11.970;2022-09-20T18:26:24;9.29;82.32
65207;SHT31;58477;48.072;11.970;2022-09-20T18:29:04;9.39;81.53
65207;SHT31;58477;48.072;11.970;2022-09-20T18:33:59;9.27;81.73
65207;SHT31;58477;48.072;11.970;2022-09-20T18:36:26;9.29;82.23
65207;SHT31;58477;48.072;11.970;2022-09-20T18:38:52;9.27;81.59
65207;SHT31;58477;48.072;11.970;2022-09-20T18:41:27;9.34;81.36
65207;SHT31;58477;48.072;11.970;2022-09-20T18:43:53;9.43;80.56
65207;SHT31;58477;48.072;11.970;2022-09-20T18:46:20;9.46;81.05
65207;SHT31;58477;48.072;11.970;2022-09-20T18:48:53;9.40;81.37
65207;SHT31;58477;48.072;11.970;2022-09-20T18:51:20;9.42;81.23
65207;SHT31;58477;48.072;11.970;2022-09-20T18:53:46;9.50;80.17
65207;SHT31;58477;48.072;11.970;2022-09-20T18:56:27;9.46;80.34
65207;SHT31;58477;48.072;11.970;2022-09-20T18:58:55;9.44;80.08
65207;SHT31;58477;48.072;11.970;2022-09-20T19:09:47;9.40;80.85
65207;SHT31;58477;48.072;11.970;2022-09-20T19:12:22;9.33;80.79
65207;SHT31;58477;48.072;11.970;2022-09-20T19:15:13;9.34;80.89
65207;SHT31;58477;48.072;11.970;2022-09-20T19:17:56;9.43;80.38
65207;SHT31;58477;48.072;11.970;2022-09-20T19:20:42;9.33;80.23
65207;SHT31;58477;48.072;11.970;2022-09-20T19:28:33;9.22;82.97
65207;SHT31;58477;48.072;11.970;2022-09-20T19:30:58;9.19;83.55
65207;SHT31;58477;48.072;11.970;2022-09-20T19:33:24;9.13;83.88
65207;SHT31;58477;48.072;11.970;2022-09-20T19:35:50;9.10;84.25
65207;SHT31;58477;48.072;11.970;2022-09-20T19:38:37;9.10;84.00
65207;SHT31;58477;48.072;11.970;2022-09-20T19:42:23;9.06;84.32
65207;SHT31;58477;48.072;11.970;2022-09-20T19:47:05;9.03;85.11
65207;SHT31;58477;48.072;11.970;2022-09-20T19:49:51;8.98;85.38
65207;SHT31;58477;48.072;11.970;2022-09-20T19:52:18;9.03;84.59
65207;SHT31;58477;48.072;11.970;2022-09-20T19:54:44;9.03;85.00
65207;SHT31;58477;48.072;11.970;2022-09-20T19:57:18;9.09;85.06
65207;SHT31;58477;48.072;11.970;2022-09-20T19:59:43;9.10;85.10
65207;SHT31;58477;48.072;11.970;2022-09-20T20:02:10;9.05;85.09
65207;SHT31;58477;48.072;11.970;2022-09-20T20:04:36;9.13;85.15
65207;SHT31;58477;48.072;11.970;2022-09-20T20:07:25;9.13;83.83
65207;SHT31;58477;48.072;11.970;2022-09-20T20:21:25;8.93;85.23
65207;SHT31;58477;48.072;11.970;2022-09-20T20:24:29;8.93;85.50
65207;SHT31;58477;48.072;11.970;2022-09-20T20:26:58;8.85;86.72
65207;SHT31;58477;48.072;11.970;2022-09-20T20:29:23;8.82;87.02
65207;SHT31;58477;48.072;11.970;2022-09-20T20:31:58;8.86;86.97
65207;SHT31;58477;48.072;11.970;2022-09-20T20:34:23;8.79;86.38
65207;SHT31;58477;48.072;11.970;2022-09-20T20:36:51;8.78;86.52
65207;SHT31;58477;48.072;11.970;2022-09-20T20:39:17;8.67;86.98
65207;SHT31;58477;48.072;11.970;2022-09-20T20:41:42;8.61;87.51
65207;SHT31;58477;48.072;11.970;2022-09-20T20:44:08;8.57;87.21
65207;SHT31;58477;48.072;11.970;2022-09-20T20:46:34;8.52;86.96